Time;durP1;ratioP1;P1;durP2;ratioP2;P2;SDS_P1;SDS_P2;PMS_P1;PMS_P2;Temp;Humidity;BMP_temperature;BMP_pressure;BME280_temperature;BME280_humidity;BME280_pressure;Samples;Min_cycle;Max_cycle;Signal;HPM_P1;HPM_P2
2023/06/17 00:01:35;;;;;;;7.53;5.97;;;;;;;18.27;48.72;101539.19;5124558;27;20028;-63
2023/06/17 00:04:02;;;;;;;7.88;6.13;;;;;;;18.43;48.57;101541.44;5118718;28;20019;-64
2023/06/17 00:06:30;;;;;;;10.55;6.10;;;;;;;18.35;48.70;101536.72;5118731;28;20131;-64
2023/06/17 00:08:55;;;;;;;10.88;5.95;;;;;;;18.17;49.02;101512.16;5118820;28;20051;-64
2023/06/17 00:11:22;;;;;;;8.07;6.43;;;;;;;18.29;49.07;101541.75;5119035;27;20513;-64
2023/06/17 00:13:47;;;;;;;9.32;6.30;;;;;;;18.28;49.17;101531.97;5118707;28;20468;-62
2023/06/17 00:16:13;;;;;;;8.48;5.70;;;;;;;18.16;49.28;101525.78;5097893;28;20027;-64
2023/06/17 00:18:41;;;;;;;7.38;5.85;;;;;;;18.11;49.43;101530.69;5098382;28;20470;-64
2023/06/17 00:21:08;;;;;;;9.13;6.53;;;;;;;18.05;49.57;101528.50;5118204;28;20027;-64
2023/06/17 00:23:34;;;;;;;7.00;6.32;;;;;;;17.98;50.05;101528.19;5118446;28;20019;-64
2023/06/17 00:26:00;;;;;;;8.88;6.15;;;;;;;18.08;50.14;101514.78;5099640;28;20026;-64
2023/06/17 00:28:25;;;;;;;6.57;5.97;;;;;;;17.93;50.31;101514.25;5119265;27;20027;-64
2023/06/17 00:30:51;;;;;;;6.97;6.18;;;;;;;17.90;50.20;101498.34;5099438;28;20031;-64
2023/06/17 00:33:16;;;;;;;10.27;7.00;;;;;;;17.91;50.25;101513.50;5118563;28;20120;-62
2023/06/17 00:35:42;;;;;;;9.85;7.05;;;;;;;17.82;50.69;101511.59;5100086;28;20016;-64
2023/06/17 00:38:08;;;;;;;8.75;6.95;;;;;;;17.82;50.81;101504.38;5118335;28;20474;-64
2023/06/17 00:40:33;;;;;;;9.45;6.68;;;;;;;17.79;50.88;101514.53;5117672;28;20073;-64
2023/06/17 00:42:58;;;;;;;10.95;6.85;;;;;;;17.67;51.24;101509.16;5118182;28;20047;-64
2023/06/17 00:45:24;;;;;;;7.95;6.95;;;;;;;17.71;51.02;101510.63;5118446;27;20016;-64
2023/06/17 00:47:50;;;;;;;7.60;6.72;;;;;;;17.62;51.49;101516.78;5118852;28;20023;-64
2023/06/17 00:50:16;;;;;;;11.38;6.90;;;;;;;17.61;51.74;101523.09;5117966;28;20471;-63
2023/06/17 00:52:44;;;;;;;9.48;7.05;;;;;;;17.58;51.84;101517.13;5118449;28;20050;-63
2023/06/17 00:55:11;;;;;;;10.80;6.80;;;;;;;17.50;51.45;101517.78;5099562;28;20055;-63
2023/06/17 00:57:40;;;;;;;10.40;7.72;;;;;;;17.38;51.75;101508.00;5096100;28;20034;-64
2023/06/17 01:00:10;;;;;;;8.88;7.57;;;;;;;17.39;52.20;101515.09;5095976;28;20023;-63
2023/06/17 01:02:39;;;;;;;10.23;6.93;;;;;;;17.40;52.34;101511.41;5134168;27;20147;-62
2023/06/17 01:05:12;;;;;;;9.30;6.65;;;;;;;17.36;52.53;101518.03;5135361;27;20019;-63
2023/06/17 01:07:57;;;;;;;12.52;7.80;;;;;;;17.30;52.60;101518.53;5135469;27;20031;-63
2023/06/17 01:10:38;;;;;;;8.60;7.70;;;;;;;17.30;52.31;101518.53;5128771;27;20019;-63
2023/06/17 01:13:05;;;;;;;8.98;8.05;;;;;;;17.20;53.09;101513.03;5114789;28;20043;-63
2023/06/17 01:15:33;;;;;;;7.78;6.97;;;;;;;17.20;52.94;101513.88;5114192;28;20622;-64
2023/06/17 01:18:00;;;;;;;9.73;8.00;;;;;;;17.20;53.11;101510.34;5096766;28;20034;-62
2023/06/17 01:20:28;;;;;;;11.38;7.82;;;;;;;17.14;53.53;101508.16;5096132;28;20490;-64
2023/06/17 01:22:55;;;;;;;9.85;7.78;;;;;;;17.11;53.55;101506.56;5096271;28;20453;-64
2023/06/17 01:25:29;;;;;;;9.23;7.50;;;;;;;17.06;53.59;101499.84;5095995;28;20061;-63
2023/06/17 01:27:59;;;;;;;9.82;7.80;;;;;;;17.03;53.45;101501.81;5114649;28;20046;-63
2023/06/17 01:30:28;;;;;;;8.55;7.25;;;;;;;16.99;53.33;101507.53;5113727;28;20149;-64
2023/06/17 01:32:57;;;;;;;9.23;7.53;;;;;;;16.94;53.64;101496.28;5079813;28;20020;-64
2023/06/17 01:35:27;;;;;;;8.23;7.47;;;;;;;16.65;54.62;101507.50;5115052;28;20020;-63
2023/06/17 01:38:23;;;;;;;12.00;8.88;;;;;;;16.89;53.58;101506.56;5114184;28;20032;-63
2023/06/17 01:40:57;;;;;;;10.10;8.35;;;;;;;16.66;54.55;101493.09;5094308;28;20039;-63
2023/06/17 01:43:25;;;;;;;9.18;7.78;;;;;;;16.57;54.81;101499.19;5113206;28;20046;-64
2023/06/17 01:45:52;;;;;;;10.60;7.93;;;;;;;16.69;54.46;101502.75;5113790;28;20024;-63
2023/06/17 01:48:18;;;;;;;9.05;8.15;;;;;;;16.39;55.09;101489.88;5095987;28;20497;-64
2023/06/17 01:50:43;;;;;;;10.63;7.68;;;;;;;16.64;54.50;101496.88;5095689;28;20027;-63
2023/06/17 01:53:09;;;;;;;12.50;7.90;;;;;;;16.55;55.08;101490.38;5114016;27;20019;-62
2023/06/17 01:55:34;;;;;;;8.75;7.95;;;;;;;16.55;55.19;101499.28;5095391;28;20031;-63
2023/06/17 01:58:02;;;;;;;9.95;8.43;;;;;;;16.60;55.04;101503.47;5113925;28;20616;-63
2023/06/17 02:00:27;;;;;;;11.77;7.95;;;;;;;16.52;55.52;101496.00;5091732;28;20537;-63
2023/06/17 02:02:53;;;;;;;11.02;9.27;;;;;;;16.48;55.48;101497.22;5113838;28;20019;-63
2023/06/17 02:05:19;;;;;;;13.73;8.68;;;;;;;16.48;55.57;101495.38;5095466;28;20034;-63
2023/06/17 02:07:45;;;;;;;9.93;7.90;;;;;;;16.48;55.91;101494.53;5112398;28;20156;-63
2023/06/17 02:10:11;;;;;;;11.10;8.95;;;;;;;16.47;55.95;101488.31;5095347;28;20114;-63
2023/06/17 02:12:36;;;;;;;11.88;8.82;;;;;;;16.33;56.43;101485.84;5095594;28;20034;-63
2023/06/17 02:15:02;;;;;;;8.30;7.50;;;;;;;16.39;56.31;101490.72;5092792;28;20198;-63
2023/06/17 02:17:27;;;;;;;11.57;8.50;;;;;;;16.29;56.48;101482.50;5094289;28;20038;-62
2023/06/17 02:19:53;;;;;;;9.27;8.00;;;;;;;16.32;56.64;101484.09;5095062;28;20031;-63
2023/06/17 02:22:19;;;;;;;10.55;8.52;;;;;;;16.26;56.62;101485.44;5113239;28;20019;-63
2023/06/17 02:24:44;;;;;;;12.40;8.82;;;;;;;16.32;56.73;101484.09;5113076;28;20084;-63
2023/06/17 02:27:12;;;;;;;9.60;8.68;;;;;;;16.19;56.85;101477.97;5113959;27;20118;-63
2023/06/17 02:29:38;;;;;;;10.80;8.63;;;;;;;16.17;57.12;101479.91;5094294;28;20031;-63
2023/06/17 02:32:04;;;;;;;11.85;9.23;;;;;;;16.14;57.20;101467.59;5112322;28;20035;-63
2023/06/17 02:34:29;;;;;;;10.00;9.13;;;;;;;16.13;57.49;101471.25;5094106;28;20054;-63
2023/06/17 02:36:56;;;;;;;12.80;9.18;;;;;;;16.09;57.16;101467.97;5111689;28;20451;-63
2023/06/17 02:39:22;;;;;;;10.25;9.00;;;;;;;16.07;57.60;101479.78;5111982;28;20051;-62
2023/06/17 02:41:47;;;;;;;9.52;8.55;;;;;;;16.02;57.66;101473.91;5110830;28;20074;-62
2023/06/17 02:44:13;;;;;;;9.88;8.88;;;;;;;15.97;57.86;101465.34;5101811;28;20028;-63
2023/06/17 02:46:38;;;;;;;10.25;9.35;;;;;;;16.01;57.84;101466.81;5107073;28;20028;-63
2023/06/17 02:49:04;;;;;;;9.93;8.93;;;;;;;15.82;58.30;101465.50;5093088;28;20077;-63
2023/06/17 02:51:29;;;;;;;10.45;8.90;;;;;;;15.88;58.26;101474.94;5083616;28;20049;-63
2023/06/17 02:53:55;;;;;;;10.20;9.15;;;;;;;15.84;58.43;101473.47;5112662;28;20020;-62
2023/06/17 02:56:21;;;;;;;10.52;9.40;;;;;;;15.86;58.33;101468.84;5093903;28;20107;-63
2023/06/17 02:58:46;;;;;;;11.80;8.65;;;;;;;15.78;58.59;101463.19;5111653;28;20503;-63
2023/06/17 03:01:12;;;;;;;13.57;9.32;;;;;;;15.72;58.73;101463.66;5097693;28;20028;-62
2023/06/17 03:03:41;;;;;;;10.13;9.18;;;;;;;15.70;58.97;101455.72;5110400;28;20031;-63
2023/06/17 03:06:08;;;;;;;11.65;9.98;;;;;;;15.67;59.00;101467.53;5073151;28;20062;-62
2023/06/17 03:08:35;;;;;;;13.27;10.02;;;;;;;15.64;59.19;101469.53;5098959;28;20031;-62
2023/06/17 03:11:01;;;;;;;11.77;10.30;;;;;;;15.63;59.27;101462.47;5111537;28;20446;-62
2023/06/17 03:13:27;;;;;;;11.77;10.68;;;;;;;15.41;59.92;101463.19;5084943;28;20046;-62
2023/06/17 03:15:54;;;;;;;13.07;9.68;;;;;;;15.32;60.23;101454.00;5106018;28;20383;-63
2023/06/17 03:18:21;;;;;;;11.27;10.07;;;;;;;15.37;60.34;101459.91;5091735;28;20026;-62
2023/06/17 03:20:51;;;;;;;12.35;10.90;;;;;;;15.38;60.69;101466.09;5111691;28;20030;-63
2023/06/17 03:23:17;;;;;;;14.90;10.38;;;;;;;15.48;60.00;101451.06;5110061;28;20028;-63
2023/06/17 03:25:46;;;;;;;19.00;11.45;;;;;;;15.34;60.41;101457.44;5111185;28;20027;-63
2023/06/17 03:28:14;;;;;;;16.77;10.13;;;;;;;15.43;60.14;101459.44;5111354;28;20027;-63
2023/06/17 03:30:42;;;;;;;13.93;11.20;;;;;;;15.33;60.22;101455.75;5110734;28;20035;-63
2023/06/17 03:33:08;;;;;;;13.25;11.10;;;;;;;15.30;60.44;101441.72;5109590;28;20467;-63
2023/06/17 03:35:34;;;;;;;15.52;11.05;;;;;;;15.34;60.70;101451.22;5098670;28;20039;-63
2023/06/17 03:38:00;;;;;;;12.07;10.88;;;;;;;15.27;61.22;101444.63;5107237;28;20020;-63
2023/06/17 03:40:25;;;;;;;13.73;10.82;;;;;;;15.33;60.94;101453.06;5083129;28;20042;-63
2023/06/17 03:42:51;;;;;;;19.15;11.18;;;;;;;15.25;61.16;101443.88;5109641;28;20138;-62
2023/06/17 03:45:19;;;;;;;19.63;11.18;;;;;;;15.33;61.31;101460.25;5098804;28;20399;-63
2023/06/17 03:47:44;;;;;;;22.20;12.55;;;;;;;15.22;61.94;101450.31;5085737;28;20032;-63
2023/06/17 03:50:10;;;;;;;22.00;11.85;;;;;;;15.27;61.77;101448.16;5111493;28;20490;-63
2023/06/17 03:52:35;;;;;;;15.18;11.60;;;;;;;15.08;62.52;101445.94;5111179;28;20023;-62
2023/06/17 03:55:01;;;;;;;12.20;10.75;;;;;;;15.11;62.73;101452.91;5091932;28;20073;-63
2023/06/17 03:57:26;;;;;;;17.27;11.60;;;;;;;15.29;62.67;101442.66;5109935;28;20459;-63
2023/06/17 03:59:51;;;;;;;13.50;10.25;;;;;;;15.24;62.84;101443.03;5086300;28;20061;-63
2023/06/17 04:02:17;;;;;;;12.00;10.73;;;;;;;15.21;63.64;101440.56;5091369;28;20093;-63
2023/06/17 04:04:42;;;;;;;13.63;10.65;;;;;;;15.11;64.70;101434.16;5102780;28;20099;-63
2023/06/17 04:07:08;;;;;;;20.60;11.40;;;;;;;14.93;65.21;101441.69;5108506;28;20035;-63
2023/06/17 04:09:34;;;;;;;20.50;10.45;;;;;;;15.16;64.97;101446.25;5111009;28;20031;-62
2023/06/17 04:12:02;;;;;;;11.48;10.32;;;;;;;15.13;65.18;101448.31;5092796;28;20016;-63
2023/06/17 04:14:27;;;;;;;15.05;10.20;;;;;;;15.26;65.42;101453.63;5083422;28;20063;-63
2023/06/17 04:16:53;;;;;;;11.80;10.50;;;;;;;15.23;65.70;101443.97;5101587;28;20051;-63
2023/06/17 04:19:19;;;;;;;11.10;9.95;;;;;;;15.30;66.49;101447.09;5111262;28;20068;-62
2023/06/17 04:21:44;;;;;;;11.70;10.57;;;;;;;15.29;66.19;101453.38;5093599;28;20024;-63
2023/06/17 04:24:10;;;;;;;12.23;10.35;;;;;;;15.30;66.24;101442.56;5111558;28;20024;-63
2023/06/17 04:26:38;;;;;;;12.23;10.35;;;;;;;15.37;66.66;101454.53;5111543;28;20106;-63
2023/06/17 04:29:03;;;;;;;11.45;10.25;;;;;;;15.36;66.75;101455.53;5094105;28;20027;-63
2023/06/17 04:31:29;;;;;;;12.93;11.75;;;;;;;15.36;67.12;101462.72;5093224;28;20030;-63
2023/06/17 04:33:54;;;;;;;11.55;10.57;;;;;;;15.40;67.15;101456.16;5115244;28;20378;-63
2023/06/17 04:36:20;;;;;;;16.20;11.50;;;;;;;15.45;67.44;101454.84;5095401;28;20030;-63
2023/06/17 04:38:47;;;;;;;12.00;10.80;;;;;;;15.50;66.99;101450.94;5109193;28;20024;-63
2023/06/17 04:41:13;;;;;;;12.05;10.85;;;;;;;15.54;67.06;101452.44;5109315;28;20031;-63
2023/06/17 04:43:38;;;;;;;12.10;11.00;;;;;;;15.62;66.86;101456.28;5111556;27;20527;-63
2023/06/17 04:46:04;;;;;;;11.68;10.48;;;;;;;15.61;66.57;101459.91;5111732;28;20137;-63
2023/06/17 04:48:32;;;;;;;13.48;11.60;;;;;;;15.58;66.89;101460.13;5115093;28;20030;-62
2023/06/17 04:50:58;;;;;;;12.98;11.63;;;;;;;15.66;66.70;101467.63;5111005;28;20333;-62
2023/06/17 04:53:24;;;;;;;12.15;10.73;;;;;;;15.75;66.82;101456.22;5114574;28;20020;-63
2023/06/17 04:55:50;;;;;;;13.48;11.48;;;;;;;15.86;66.50;101460.81;5096924;28;20164;-63
2023/06/17 04:58:16;;;;;;;16.67;12.60;;;;;;;15.84;66.46;101449.31;5096102;28;20122;-63
2023/06/17 05:00:42;;;;;;;11.63;10.50;;;;;;;15.95;66.84;101459.25;5113128;28;20020;-63
2023/06/17 05:03:07;;;;;;;13.40;12.00;;;;;;;15.87;67.58;101462.50;5096219;28;20874;-63
2023/06/17 05:05:32;;;;;;;14.88;12.20;;;;;;;16.05;67.34;101463.78;5114631;28;20027;-62
2023/06/17 05:08:00;;;;;;;13.25;12.05;;;;;;;16.08;67.44;101466.22;5096393;28;20106;-63
2023/06/17 05:10:25;;;;;;;16.13;14.52;;;;;;;16.22;66.98;101470.53;5114621;28;20034;-63
2023/06/17 05:12:51;;;;;;;16.75;15.25;;;;;;;16.25;68.12;101472.13;5096774;28;20031;-63
2023/06/17 05:15:17;;;;;;;18.60;16.17;;;;;;;16.37;67.39;101473.03;5095931;28;20028;-62
2023/06/17 05:17:42;;;;;;;20.58;18.42;;;;;;;16.55;66.18;101480.47;5114350;28;20031;-62
2023/06/17 05:20:08;;;;;;;20.83;18.73;;;;;;;16.57;66.46;101469.63;5114642;28;20039;-62
2023/06/17 05:22:34;;;;;;;21.20;19.30;;;;;;;16.74;64.92;101479.06;5096204;28;20095;-63
2023/06/17 05:25:00;;;;;;;20.77;18.88;;;;;;;16.92;64.91;101479.47;5096202;28;20110;-62
2023/06/17 05:27:25;;;;;;;20.75;18.77;;;;;;;16.95;64.09;101482.75;5114755;28;20471;-62
2023/06/17 05:29:51;;;;;;;22.33;19.77;;;;;;;17.00;65.18;101472.50;5114024;28;20102;-63
2023/06/17 05:32:16;;;;;;;22.02;20.02;;;;;;;17.13;64.19;101474.19;5114206;28;20028;-63
2023/06/17 05:34:41;;;;;;;21.10;18.98;;;;;;;17.22;63.44;101481.50;5114529;28;20024;-63
2023/06/17 05:37:07;;;;;;;23.88;19.85;;;;;;;17.26;63.00;101480.28;5096008;28;20027;-62
2023/06/17 05:39:32;;;;;;;22.33;20.20;;;;;;;17.36;63.25;101480.41;5114516;28;20111;-63
2023/06/17 05:41:57;;;;;;;21.50;19.25;;;;;;;17.56;62.33;101467.97;5113761;28;20048;-62
2023/06/17 05:44:23;;;;;;;24.83;20.08;;;;;;;17.41;63.78;101445.88;5113803;28;20028;-63
2023/06/17 05:46:48;;;;;;;23.35;18.25;;;;;;;17.63;63.78;101475.44;5095504;28;20478;-62
2023/06/17 05:49:15;;;;;;;19.58;17.67;;;;;;;17.74;63.15;101477.22;5114045;28;20038;-62
2023/06/17 05:51:41;;;;;;;20.35;18.45;;;;;;;17.86;62.19;101478.94;5095735;28;20363;-63
2023/06/17 05:54:06;;;;;;;19.85;18.05;;;;;;;17.93;62.29;101480.09;5113782;28;20072;-62
2023/06/17 05:56:32;;;;;;;22.25;18.13;;;;;;;18.01;62.75;101476.78;5095618;28;20016;-62
2023/06/17 05:58:59;;;;;;;18.65;16.80;;;;;;;18.07;61.58;101465.50;5113554;28;20027;-62
2023/06/17 06:01:25;;;;;;;19.88;16.25;;;;;;;18.21;62.31;101475.09;5113381;28;20023;-62
2023/06/17 06:03:50;;;;;;;20.33;16.02;;;;;;;18.23;63.69;101473.09;5113633;28;20027;-62
2023/06/17 06:06:16;;;;;;;17.30;15.75;;;;;;;18.32;61.39;101461.56;5113834;28;20022;-62
2023/06/17 06:08:41;;;;;;;17.10;15.40;;;;;;;18.37;63.21;101466.53;5113847;28;20387;-63
2023/06/17 06:11:07;;;;;;;18.25;16.30;;;;;;;18.53;61.19;101469.63;5113672;28;20115;-62
2023/06/17 06:13:32;;;;;;;19.08;15.85;;;;;;;18.62;60.24;101470.66;5113593;28;20129;-64
2023/06/17 06:15:57;;;;;;;19.48;15.15;;;;;;;18.80;60.05;101476.31;5112631;28;20451;-62
2023/06/17 06:18:23;;;;;;;17.13;14.80;;;;;;;18.86;59.09;101477.63;5113628;28;20039;-63
2023/06/17 06:20:48;;;;;;;17.10;15.40;;;;;;;18.88;58.94;101463.00;5095408;28;20474;-62
2023/06/17 06:23:14;;;;;;;17.35;15.63;;;;;;;19.04;58.84;101467.91;5113585;28;20490;-62
2023/06/17 06:25:39;;;;;;;20.35;15.82;;;;;;;19.06;58.98;101474.88;5113166;28;20437;-62
2023/06/17 06:28:05;;;;;;;15.60;13.68;;;;;;;19.24;57.26;101468.81;5094965;28;20023;-64
2023/06/17 06:30:31;;;;;;;15.23;13.70;;;;;;;19.37;57.02;101468.56;5094561;28;20023;-64
2023/06/17 06:32:57;;;;;;;14.18;12.82;;;;;;;19.48;55.55;101465.75;5113332;28;20374;-64
2023/06/17 06:35:22;;;;;;;14.95;13.55;;;;;;;19.42;56.83;101467.16;5094854;28;20119;-63
2023/06/17 06:37:47;;;;;;;14.68;13.13;;;;;;;19.63;54.60;101471.59;5113204;28;20038;-64
2023/06/17 06:40:13;;;;;;;13.85;12.23;;;;;;;19.70;54.14;101472.75;5094950;28;20031;-64
2023/06/17 06:42:38;;;;;;;17.83;11.82;;;;;;;19.81;52.42;101477.16;5094599;28;20040;-64
2023/06/17 06:45:04;;;;;;;16.65;11.25;;;;;;;19.86;52.15;101470.34;5112342;28;20061;-64
2023/06/17 06:47:32;;;;;;;14.05;12.73;;;;;;;19.82;52.40;101470.75;5094343;28;20031;-64
2023/06/17 06:49:57;;;;;;;12.93;10.90;;;;;;;19.94;49.56;101475.91;5094664;28;20024;-64
2023/06/17 06:52:23;;;;;;;14.27;10.25;;;;;;;20.10;48.82;101478.00;5113202;28;20138;-62
2023/06/17 06:54:48;;;;;;;11.27;10.07;;;;;;;20.16;47.61;101472.03;5112289;28;20394;-64
2023/06/17 06:57:14;;;;;;;12.55;10.43;;;;;;;20.31;47.20;101472.44;5112191;28;20028;-64
2023/06/17 06:59:40;;;;;;;10.60;9.20;;;;;;;20.43;45.87;101481.22;5112674;28;20020;-63
2023/06/17 07:02:05;;;;;;;12.07;10.75;;;;;;;20.38;47.34;101475.41;5112699;28;20034;-63
2023/06/17 07:04:31;;;;;;;11.70;8.63;;;;;;;20.60;47.39;101468.84;5094509;28;20024;-64
2023/06/17 07:06:56;;;;;;;13.52;11.43;;;;;;;20.62;47.47;101474.97;5112374;28;20399;-62
2023/06/17 07:09:21;;;;;;;12.35;11.25;;;;;;;20.69;47.55;101480.63;5094630;28;20062;-64
2023/06/17 07:11:50;;;;;;;10.75;9.65;;;;;;;20.85;47.19;101481.72;5112425;28;20035;-63
2023/06/17 07:14:15;;;;;;;11.90;10.70;;;;;;;20.80;46.34;101483.16;5112679;28;20020;-63
2023/06/17 07:16:41;;;;;;;11.50;10.38;;;;;;;20.87;46.09;101485.09;5111623;28;20273;-63
2023/06/17 07:19:06;;;;;;;17.02;11.68;;;;;;;20.89;47.88;101476.03;5112581;28;20505;-63
2023/06/17 07:21:31;;;;;;;12.27;11.02;;;;;;;20.84;45.98;101481.84;5112491;28;20052;-62
2023/06/17 07:23:57;;;;;;;14.18;11.05;;;;;;;20.90;46.13;101466.91;5112307;28;20474;-62
2023/06/17 07:26:22;;;;;;;11.98;10.75;;;;;;;20.88;47.81;101467.03;5093935;28;20061;-63
2023/06/17 07:28:47;;;;;;;13.82;11.32;;;;;;;20.87;47.88;101458.06;5112371;28;20077;-64
2023/06/17 07:31:13;;;;;;;13.63;11.30;;;;;;;21.07;48.21;101480.47;5111713;28;20055;-64
2023/06/17 07:33:39;;;;;;;13.88;11.30;;;;;;;21.25;47.16;101477.81;5112430;28;20027;-63
2023/06/17 07:36:05;;;;;;;15.65;11.63;;;;;;;21.27;45.90;101475.81;5111780;28;20026;-62
2023/06/17 07:38:33;;;;;;;13.48;11.82;;;;;;;21.26;45.76;101475.97;5093987;28;20061;-64
2023/06/17 07:41:01;;;;;;;13.52;12.02;;;;;;;21.28;45.79;101476.66;5093438;28;20027;-64
2023/06/17 07:43:26;;;;;;;19.08;11.43;;;;;;;21.26;47.45;101476.81;5111973;28;20072;-62
2023/06/17 07:45:52;;;;;;;12.95;10.52;;;;;;;21.39;45.73;101467.53;5093196;28;20584;-64
2023/06/17 07:48:17;;;;;;;13.65;10.43;;;;;;;21.49;45.51;101463.72;5093837;28;20034;-62
2023/06/17 07:50:43;;;;;;;15.13;11.63;;;;;;;21.39;43.01;101464.81;5093746;28;20024;-64
2023/06/17 07:53:13;;;;;;;16.33;10.35;;;;;;;21.54;43.80;101471.41;5111767;28;20016;-64
2023/06/17 07:55:39;;;;;;;13.75;9.65;;;;;;;21.58;46.00;101474.66;5111276;28;20049;-64
2023/06/17 07:58:04;;;;;;;12.77;10.75;;;;;;;21.71;44.40;101456.19;5111657;28;20081;-64
2023/06/17 08:00:30;;;;;;;15.77;10.60;;;;;;;21.87;45.48;101469.88;5093283;28;20031;-64
2023/06/17 08:02:55;;;;;;;13.77;11.70;;;;;;;21.98;44.07;101464.22;5111899;28;20053;-64
2023/06/17 08:05:23;;;;;;;15.70;10.93;;;;;;;21.94;44.84;101464.66;5113087;28;20043;-64
2023/06/17 08:07:49;;;;;;;11.85;9.95;;;;;;;22.21;43.22;101455.63;5097497;28;20380;-65
2023/06/17 08:10:14;;;;;;;14.98;10.95;;;;;;;22.26;42.66;101472.25;5115776;28;20035;-64
2023/06/17 08:12:40;;;;;;;12.50;10.77;;;;;;;22.22;42.84;101463.59;5116206;28;20020;-65
2023/06/17 08:15:07;;;;;;;11.85;8.80;;;;;;;22.36;43.27;101455.91;5115406;28;20020;-67
2023/06/17 08:17:33;;;;;;;12.85;9.82;;;;;;;22.33;42.37;101457.06;5115769;28;20110;-61
2023/06/17 08:20:01;;;;;;;11.73;9.48;;;;;;;22.50;43.02;101449.91;5115365;28;20134;-61
2023/06/17 08:22:27;;;;;;;11.77;8.55;;;;;;;22.67;41.79;101456.25;5115970;28;20028;-68
2023/06/17 08:24:52;;;;;;;9.90;8.82;;;;;;;22.81;41.19;101452.94;5115601;28;20394;-62
2023/06/17 08:27:18;;;;;;;11.15;8.43;;;;;;;23.00;40.96;101460.03;5115450;28;20031;-62
2023/06/17 08:29:43;;;;;;;8.50;7.47;;;;;;;23.05;39.78;101456.81;5115300;28;20023;-61
2023/06/17 08:32:09;;;;;;;9.90;7.60;;;;;;;22.96;38.30;101453.22;5115719;28;20106;-65
2023/06/17 08:34:37;;;;;;;9.10;7.57;;;;;;;22.96;37.46;101438.81;5115607;28;20019;-68
2023/06/17 08:37:03;;;;;;;11.25;6.38;;;;;;;23.04;37.05;101447.81;5115563;28;20023;-66
2023/06/17 08:39:32;;;;;;;10.80;5.20;;;;;;;23.15;35.82;101452.13;5115052;28;20039;-70
2023/06/17 08:41:57;;;;;;;7.43;6.03;;;;;;;23.22;37.54;101433.28;5097235;28;20043;-68
2023/06/17 08:44:25;;;;;;;9.40;7.18;;;;;;;23.28;37.56;101449.75;5114994;28;20034;-66
2023/06/17 08:46:53;;;;;;;10.88;7.50;;;;;;;23.35;37.37;101450.81;5114612;28;20084;-65
2023/06/17 08:49:21;;;;;;;9.73;7.70;;;;;;;23.30;37.32;101447.75;5115429;28;20046;-65
2023/06/17 08:51:49;;;;;;;10.60;7.47;;;;;;;23.52;37.33;101453.56;5096842;28;20019;-65
2023/06/17 08:54:18;;;;;;;10.70;7.63;;;;;;;23.60;36.45;101450.84;5096884;28;20347;-65
2023/06/17 08:56:44;;;;;;;10.88;7.78;;;;;;;23.62;36.52;101451.56;5096419;28;20024;-65
2023/06/17 08:59:10;;;;;;;10.52;7.18;;;;;;;23.76;36.33;101445.47;5114562;28;20065;-63
2023/06/17 09:01:38;;;;;;;10.02;7.03;;;;;;;23.93;35.46;101449.03;5114855;28;20434;-62
2023/06/17 09:04:04;;;;;;;7.90;6.63;;;;;;;23.99;34.69;101436.66;5115016;28;20016;-62
2023/06/17 09:06:32;;;;;;;8.60;7.70;;;;;;;23.84;33.74;101430.19;5114588;28;20425;-68
2023/06/17 09:08:58;;;;;;;12.05;7.85;;;;;;;23.89;36.94;101444.97;5096432;28;20160;-66
2023/06/17 09:11:33;;;;;;;10.60;6.68;;;;;;;24.01;36.52;101451.78;5114920;28;20102;-71
2023/06/17 09:14:00;;;;;;;8.05;6.15;;;;;;;24.11;35.09;101442.59;5114939;28;20081;-69
2023/06/17 09:16:35;;;;;;;6.65;5.95;;;;;;;24.28;35.61;101436.13;5114370;28;20023;-68
2023/06/17 09:19:09;;;;;;;11.18;5.50;;;;;;;24.21;35.62;101430.53;5114207;28;20596;-67
2023/06/17 09:21:36;;;;;;;8.48;5.40;;;;;;;24.43;35.50;101448.00;5096348;28;20031;-66
2023/06/17 09:24:06;;;;;;;9.07;5.88;;;;;;;24.61;34.77;101438.78;5095921;28;20023;-65
2023/06/17 09:26:35;;;;;;;6.82;5.30;;;;;;;24.81;36.33;101450.13;5096305;28;20030;-69
2023/06/17 09:29:05;;;;;;;;;;;;;;;24.82;36.57;101447.22;5095771;28;20030;-67
2023/06/17 09:31:31;;;;;;;11.32;7.15;;;;;;;24.64;34.25;101443.88;5095294;28;19911;-69
2023/06/17 09:33:57;;;;;;;7.90;6.13;;;;;;;24.65;35.54;101445.59;5114376;28;20022;-70
2023/06/17 09:36:23;;;;;;;9.52;6.68;;;;;;;24.74;35.81;101441.81;5114339;28;20042;-67
2023/06/17 09:38:54;;;;;;;11.00;6.35;;;;;;;24.99;35.07;101449.88;5114394;28;20027;-67
2023/06/17 09:41:23;;;;;;;9.80;6.30;;;;;;;25.00;34.62;101454.28;5114455;28;20025;-67
2023/06/17 09:43:50;;;;;;;9.15;6.00;;;;;;;25.07;35.21;101450.69;5096168;28;20043;-67
2023/06/17 09:46:35;;;;;;;7.07;5.45;;;;;;;25.06;35.08;101446.28;5095554;28;20032;-62
2023/06/17 09:49:06;;;;;;;6.85;5.10;;;;;;;25.10;34.99;101446.78;5114009;28;20020;-62
2023/06/17 09:51:36;;;;;;;5.40;4.90;;;;;;;25.11;35.53;101443.88;5095496;28;20034;-62
2023/06/17 09:54:02;;;;;;;8.80;5.22;;;;;;;25.12;34.25;101442.00;5114024;28;20096;-62
2023/06/17 09:56:31;;;;;;;5.72;5.13;;;;;;;25.15;35.43;101444.41;5114001;28;20028;-62
2023/06/17 09:58:56;;;;;;;5.75;5.25;;;;;;;25.28;35.59;101444.66;5102738;28;20028;-62
2023/06/17 10:01:30;;;;;;;8.43;5.80;;;;;;;25.01;33.37;101440.53;5095239;28;20032;-62
2023/06/17 10:04:02;;;;;;;7.93;5.68;;;;;;;25.17;34.92;101436.91;5093486;28;20528;-62
2023/06/17 10:06:32;;;;;;;6.65;5.95;;;;;;;25.16;33.97;101429.75;5109024;28;20039;-62
2023/06/17 10:08:57;;;;;;;5.40;4.88;;;;;;;25.28;34.18;101422.03;5113928;28;20028;-62
2023/06/17 10:11:26;;;;;;;8.32;5.00;;;;;;;25.30;35.30;101428.16;5098688;28;20539;-69
2023/06/17 10:14:22;;;;;;;5.90;5.28;;;;;;;25.47;33.74;101429.75;5111545;28;20027;-65
2023/06/17 10:16:50;;;;;;;9.02;5.22;;;;;;;25.44;34.90;101426.53;5094940;28;20072;-66
2023/06/17 10:19:24;;;;;;;6.13;4.97;;;;;;;25.48;34.82;101420.56;5111820;28;20039;-65
2023/06/17 10:21:53;;;;;;;7.18;5.00;;;;;;;25.63;35.23;101423.34;5093045;28;20483;-66
2023/06/17 10:24:19;;;;;;;5.78;4.85;;;;;;;25.76;33.77;101428.16;5100036;28;20440;-62
2023/06/17 10:26:52;;;;;;;8.40;5.18;;;;;;;25.88;34.67;101425.88;5078441;28;20050;-66
2023/06/17 10:29:18;;;;;;;6.13;5.25;;;;;;;25.86;34.53;101414.34;5109881;28;20336;-67
2023/06/17 10:31:43;;;;;;;5.70;4.60;;;;;;;25.90;34.21;101412.94;5094639;28;20027;-64
2023/06/17 10:34:14;;;;;;;5.57;4.68;;;;;;;26.08;33.70;101421.63;5112562;28;20042;-65
2023/06/17 10:36:40;;;;;;;5.50;4.50;;;;;;;26.19;33.88;101412.16;5094769;28;20360;-65
2023/06/17 10:39:13;;;;;;;6.25;4.25;;;;;;;26.15;31.84;101421.72;5093703;28;20034;-68
2023/06/17 10:41:38;;;;;;;6.45;4.15;;;;;;;26.24;30.91;101415.19;5112346;28;20027;-64
2023/06/17 10:44:33;;;;;;;6.28;4.55;;;;;;;26.18;32.46;101416.78;5094854;28;20100;-64
2023/06/17 10:46:59;;;;;;;5.57;4.38;;;;;;;25.95;31.64;101407.78;5106578;28;20079;-67
2023/06/17 10:49:24;;;;;;;6.85;4.20;;;;;;;26.13;32.60;101412.91;5112468;28;20050;-67
2023/06/17 10:51:54;;;;;;;5.28;4.40;;;;;;;26.20;31.40;101408.38;5128953;27;20470;-66
2023/06/17 10:54:30;;;;;;;6.38;4.00;;;;;;;26.32;32.62;101409.63;5088893;28;20020;-67
2023/06/17 10:56:56;;;;;;;5.45;4.13;;;;;;;26.40;31.59;101406.81;5074158;28;20058;-68
2023/06/17 10:59:27;;;;;;;7.18;4.15;;;;;;;26.30;32.80;101398.06;5100986;28;20490;-71
2023/06/17 11:02:00;;;;;;;6.22;4.15;;;;;;;26.38;32.80;101387.03;5112527;28;20059;-70
2023/06/17 11:04:30;;;;;;;7.25;4.10;;;;;;;26.56;32.23;101399.50;5111052;28;20023;-69
2023/06/17 11:06:58;;;;;;;8.20;4.38;;;;;;;26.53;32.52;101391.69;5094582;28;20030;-67
2023/06/17 11:09:28;;;;;;;5.57;3.80;;;;;;;26.67;33.30;101382.66;5094335;28;20424;-65
2023/06/17 11:11:54;;;;;;;5.28;3.60;;;;;;;26.63;32.11;101389.53;5092690;28;20081;-68
2023/06/17 11:14:26;;;;;;;9.02;4.05;;;;;;;26.47;30.87;101398.72;5112866;28;20094;-69
2023/06/17 11:16:52;;;;;;;5.10;3.92;;;;;;;26.59;31.30;101389.06;5112481;28;20085;-66